Time;durP1;ratioP1;P1;durP2;ratioP2;P2;SDS_P1;SDS_P2;PMS_P1;PMS_P2;Temp;Humidity;BMP_temperature;BMP_pressure;BME280_temperature;BME280_humidity;BME280_pressure;Samples;Min_cycle;Max_cycle;Signal;HPM_P1;HPM_P2
2022/08/29 00:00:07;;;;;;;7.07;2.70;;;20.10;63.80;;;;;;5055308;28;20453;-79
2022/08/29 00:02:45;;;;;;;9.53;3.07;;;20.10;63.90;;;;;;5053475;28;21357;-78
2022/08/29 00:05:14;;;;;;;8.47;3.50;;;20.10;63.90;;;;;;5069472;28;20469;-78
2022/08/29 00:07:42;;;;;;;6.43;2.73;;;20.00;63.90;;;;;;5058577;28;20487;-78
2022/08/29 00:10:11;;;;;;;10.90;3.40;;;20.00;64.00;;;;;;5059708;28;21314;-79
2022/08/29 00:12:39;;;;;;;6.93;2.90;;;19.90;64.10;;;;;;5055968;28;20457;-79
2022/08/29 00:15:08;;;;;;;9.07;2.93;;;19.90;64.10;;;;;;5059339;28;21206;-76
2022/08/29 00:17:37;;;;;;;7.20;2.63;;;19.90;64.10;;;;;;5058160;28;20467;-79
2022/08/29 00:20:06;;;;;;;9.50;2.80;;;19.90;64.10;;;;;;5058512;28;20451;-79
2022/08/29 00:22:35;;;;;;;8.63;3.60;;;19.80;64.20;;;;;;5062072;28;20474;-79
2022/08/29 00:25:04;;;;;;;10.30;4.37;;;19.80;64.20;;;;;;5058810;28;20476;-79
2022/08/29 00:27:33;;;;;;;7.60;3.70;;;19.80;64.20;;;;;;5059867;28;20495;-79
2022/08/29 00:30:01;;;;;;;9.37;3.97;;;19.70;64.30;;;;;;5060246;28;20466;-79
2022/08/29 00:32:35;;;;;;;9.93;3.93;;;19.70;64.40;;;;;;5055371;28;20451;-76
2022/08/29 00:35:03;;;;;;;16.30;5.40;;;19.70;64.40;;;;;;5061351;28;20822;-78
2022/08/29 00:37:31;;;;;;;9.00;4.77;;;19.70;64.20;;;;;;5064866;28;20490;-79
2022/08/29 00:40:01;;;;;;;9.57;4.13;;;19.60;64.30;;;;;;5057223;28;20446;-77
2022/08/29 00:42:30;;;;;;;10.63;4.50;;;19.60;64.40;;;;;;5059309;28;20833;-79
2022/08/29 00:44:58;;;;;;;8.40;4.07;;;19.60;64.40;;;;;;5088706;28;20477;-77
2022/08/29 00:47:32;;;;;;;8.00;3.33;;;19.50;64.40;;;;;;5059793;28;20490;-78
2022/08/29 00:50:01;;;;;;;6.40;2.87;;;19.50;64.50;;;;;;5063959;28;20452;-79
2022/08/29 00:52:38;;;;;;;9.40;3.57;;;19.50;64.60;;;;;;5060568;28;20818;-78
2022/08/29 00:55:11;;;;;;;9.70;3.90;;;19.50;64.60;;;;;;5061307;28;21015;-78
2022/08/29 00:57:42;;;;;;;8.33;3.50;;;19.50;64.60;;;;;;5063934;28;20478;-78
2022/08/29 01:00:13;;;;;;;8.20;3.10;;;19.50;64.60;;;;;;5057772;28;20458;-78
2022/08/29 01:02:41;;;;;;;6.13;2.70;;;19.50;64.60;;;;;;5056612;28;20458;-78
2022/08/29 01:05:11;;;;;;;9.70;2.70;;;19.50;64.70;;;;;;5059030;28;20539;-79
2022/08/29 01:07:39;;;;;;;7.83;2.97;;;19.40;64.70;;;;;;5053808;28;20479;-78
2022/08/29 01:12:14;;;;;;;6.37;2.70;;;19.40;64.70;;;;;;5055988;28;20533;-78
2022/08/29 01:12:57;;;;;;;10.13;2.93;;;19.40;64.80;;;;;;5057997;28;20470;-78
2022/08/29 01:15:26;;;;;;;10.43;2.73;;;19.40;64.70;;;;;;5056004;28;21184;-79
2022/08/29 01:17:55;;;;;;;6.83;2.87;;;19.30;64.70;;;;;;5057136;28;20470;-79
2022/08/29 01:20:30;;;;;;;8.33;3.23;;;19.30;64.60;;;;;;5056511;28;21250;-79
2022/08/29 01:23:07;;;;;;;10.77;3.30;;;19.30;64.60;;;;;;5053043;28;20470;-79
2022/08/29 01:25:40;;;;;;;6.13;2.37;;;19.30;64.60;;;;;;5062162;28;20493;-79
2022/08/29 01:28:14;;;;;;;8.00;2.83;;;19.30;64.60;;;;;;5059538;28;20476;-78
2022/08/29 01:31:01;;;;;;;5.23;2.30;;;19.30;64.60;;;;;;5058435;28;20453;-77
2022/08/29 01:33:37;;;;;;;7.60;2.60;;;19.20;64.60;;;;;;5061585;28;20455;-79
2022/08/29 01:36:06;;;;;;;8.20;2.20;;;19.20;64.50;;;;;;5057547;28;20442;-78
2022/08/29 01:38:34;;;;;;;6.30;2.73;;;19.10;64.50;;;;;;5059559;28;20476;-78
2022/08/29 01:41:04;;;;;;;6.50;2.47;;;19.00;64.60;;;;;;5057524;28;20469;-79
2022/08/29 01:43:38;;;;;;;7.33;2.63;;;19.00;64.70;;;;;;5057591;28;20461;-78
2022/08/29 01:46:07;;;;;;;5.97;2.90;;;19.00;64.70;;;;;;5059044;28;20471;-79
2022/08/29 01:48:37;;;;;;;7.20;3.20;;;19.00;64.70;;;;;;5058483;28;20478;-78
2022/08/29 01:51:05;;;;;;;6.93;3.30;;;18.90;64.60;;;;;;5060655;28;20442;-79
2022/08/29 01:53:33;;;;;;;10.17;3.17;;;18.80;64.50;;;;;;5052258;28;21126;-78
2022/08/29 01:56:11;;;;;;;6.33;2.80;;;18.70;64.60;;;;;;5053813;28;21371;-79
2022/08/29 01:58:39;;;;;;;11.47;3.37;;;18.70;64.80;;;;;;5054693;28;20474;-79
2022/08/29 02:01:09;;;;;;;7.83;2.67;;;18.70;64.80;;;;;;5051572;28;20455;-79
2022/08/29 02:03:37;;;;;;;7.77;3.10;;;18.70;64.80;;;;;;5059582;28;20490;-79
2022/08/29 02:06:08;;;;;;;7.00;3.00;;;18.70;64.90;;;;;;5059783;28;20481;-79
2022/08/29 02:08:37;;;;;;;6.93;2.40;;;18.70;64.90;;;;;;5066429;28;20481;-79
2022/08/29 02:11:08;;;;;;;11.43;3.27;;;18.70;64.80;;;;;;5060796;28;20474;-77
2022/08/29 02:13:39;;;;;;;7.47;2.40;;;18.70;64.80;;;;;;5063155;28;20461;-77
2022/08/29 02:16:07;;;;;;;10.83;2.93;;;18.60;64.80;;;;;;5062184;28;20810;-78
2022/08/29 02:18:35;;;;;;;6.57;2.70;;;18.60;64.80;;;;;;5063659;28;20467;-79
2022/08/29 02:21:04;;;;;;;8.83;2.90;;;18.60;64.90;;;;;;5061127;28;20466;-77
2022/08/29 02:23:34;;;;;;;11.93;2.77;;;18.60;64.90;;;;;;5063800;28;20850;-77
2022/08/29 02:26:03;;;;;;;10.27;3.37;;;18.60;64.90;;;;;;5061911;28;20458;-78
2022/08/29 02:28:32;;;;;;;8.03;3.20;;;18.60;64.80;;;;;;5060110;28;20543;-77
2022/08/29 02:31:02;;;;;;;6.43;3.00;;;18.50;64.90;;;;;;5059749;28;20461;-78
2022/08/29 02:33:31;;;;;;;7.93;2.40;;;18.40;65.00;;;;;;5059104;28;20452;-79
2022/08/29 02:35:59;;;;;;;7.80;2.30;;;18.40;65.10;;;;;;5058568;28;20458;-79
2022/08/29 02:38:28;;;;;;;7.27;2.73;;;18.30;65.20;;;;;;5090401;28;21010;-79
2022/08/29 02:40:56;;;;;;;12.00;2.70;;;18.30;65.30;;;;;;5059170;28;20467;-78
2022/08/29 02:43:25;;;;;;;10.70;3.27;;;18.30;65.40;;;;;;5063402;28;20459;-79
2022/08/29 02:45:53;;;;;;;6.60;3.23;;;18.20;65.50;;;;;;5059500;28;20501;-78
2022/08/29 02:48:22;;;;;;;8.43;3.20;;;18.20;65.50;;;;;;5062890;28;21288;-77
2022/08/29 02:50:53;;;;;;;9.83;3.00;;;18.20;65.60;;;;;;5061855;28;20496;-79
2022/08/29 02:53:24;;;;;;;10.10;3.47;;;18.10;65.70;;;;;;5059377;28;20447;-77
2022/08/29 02:55:52;;;;;;;8.57;3.60;;;18.10;65.80;;;;;;5057931;28;20482;-79
2022/08/29 02:58:21;;;;;;;6.60;3.63;;;18.10;65.80;;;;;;5058372;28;20481;-79
2022/08/29 03:00:49;;;;;;;8.23;2.97;;;18.10;66.00;;;;;;5060838;28;20458;-78
2022/08/29 03:03:18;;;;;;;6.73;2.53;;;18.10;66.00;;;;;;5063137;28;20958;-79
2022/08/29 03:05:48;;;;;;;7.30;2.87;;;18.10;66.00;;;;;;5061832;28;20447;-78
2022/08/29 03:08:17;;;;;;;6.70;2.83;;;18.00;66.00;;;;;;5064067;28;21025;-79
2022/08/29 03:10:45;;;;;;;5.70;2.87;;;18.00;66.00;;;;;;5058543;28;20465;-78
2022/08/29 03:13:13;;;;;;;5.90;2.83;;;18.00;66.20;;;;;;5057247;28;20454;-79
2022/08/29 03:15:41;;;;;;;7.07;2.60;;;18.00;66.40;;;;;;5055644;28;20466;-78
2022/08/29 03:18:09;;;;;;;8.80;3.03;;;17.90;66.50;;;;;;5056826;28;20463;-78
2022/08/29 03:20:38;;;;;;;12.73;3.70;;;17.90;66.50;;;;;;5059712;28;20512;-79
2022/08/29 03:23:08;;;;;;;5.97;2.57;;;17.90;66.60;;;;;;5063263;28;20477;-79
2022/08/29 03:25:36;;;;;;;9.43;3.13;;;17.90;66.50;;;;;;5058547;28;20464;-78
2022/08/29 03:28:04;;;;;;;7.77;2.77;;;17.80;66.50;;;;;;5063638;28;20485;-79
2022/08/29 03:30:32;;;;;;;10.93;2.80;;;17.80;66.60;;;;;;5062139;28;20449;-77
2022/08/29 03:33:01;;;;;;;9.90;2.60;;;17.80;66.50;;;;;;5061391;28;20542;-77
2022/08/29 03:35:29;;;;;;;8.37;2.83;;;17.80;66.40;;;;;;5061516;28;20473;-79
2022/08/29 03:37:57;;;;;;;5.87;2.93;;;17.80;66.50;;;;;;5058224;28;20470;-79
2022/08/29 03:40:26;;;;;;;7.77;3.40;;;17.80;66.50;;;;;;5058645;28;20477;-78
2022/08/29 03:42:55;;;;;;;7.03;2.90;;;17.80;66.50;;;;;;5059874;28;20466;-79
2022/08/29 03:45:24;;;;;;;7.93;2.57;;;17.70;66.50;;;;;;5060137;28;20450;-80
2022/08/29 03:47:52;;;;;;;7.47;2.77;;;17.70;66.60;;;;;;5060562;28;20487;-80
2022/08/29 03:50:23;;;;;;;6.47;2.87;;;17.70;66.70;;;;;;5059751;28;20460;-78
2022/08/29 03:52:51;;;;;;;6.23;2.50;;;17.70;66.80;;;;;;5060089;28;20450;-78
2022/08/29 03:55:19;;;;;;;8.97;2.90;;;17.70;66.80;;;;;;5056543;28;20451;-78
2022/08/29 03:57:48;;;;;;;7.70;3.00;;;17.70;66.80;;;;;;5054773;28;20473;-78
2022/08/29 04:00:19;;;;;;;6.27;2.50;;;17.70;66.70;;;;;;5060323;28;20453;-78
2022/08/29 04:02:48;;;;;;;5.80;3.13;;;17.70;66.60;;;;;;5059312;28;20450;-79
2022/08/29 04:05:17;;;;;;;8.13;2.60;;;17.60;66.60;;;;;;5054956;28;20455;-77
2022/08/29 04:07:48;;;;;;;8.87;2.90;;;17.60;66.60;;;;;;5058936;28;20489;-78
2022/08/29 04:10:21;;;;;;;8.87;3.70;;;17.50;66.60;;;;;;5062392;28;20477;-80
2022/08/29 04:12:50;;;;;;;9.70;3.63;;;17.50;66.70;;;;;;5060423;28;20461;-80
2022/08/29 04:15:22;;;;;;;7.20;3.10;;;17.50;66.70;;;;;;5061087;28;20446;-79
2022/08/29 04:17:53;;;;;;;8.40;3.40;;;17.50;66.80;;;;;;5062557;28;20474;-79
2022/08/29 04:20:22;;;;;;;10.43;3.53;;;17.50;66.80;;;;;;5062405;28;20504;-78
2022/08/29 04:22:53;;;;;;;7.30;3.20;;;17.50;66.80;;;;;;5056837;28;20466;-79
2022/08/29 04:25:23;;;;;;;9.47;2.90;;;17.50;66.70;;;;;;5052528;28;20458;-79
2022/08/29 04:27:53;;;;;;;10.37;2.53;;;17.50;66.60;;;;;;5057251;28;20601;-77
2022/08/29 04:30:23;;;;;;;6.90;3.20;;;17.40;66.50;;;;;;5057443;28;20477;-77
2022/08/29 04:32:51;;;;;;;7.80;3.00;;;17.40;66.50;;;;;;5054400;28;20457;-79
2022/08/29 04:35:20;;;;;;;7.00;2.80;;;17.40;66.60;;;;;;5054010;28;20446;-77
2022/08/29 04:37:49;;;;;;;9.43;3.90;;;17.40;66.80;;;;;;5055803;28;20473;-76
2022/08/29 04:40:20;;;;;;;6.50;2.60;;;17.40;66.60;;;;;;5052865;28;20451;-79
2022/08/29 04:42:49;;;;;;;6.60;2.60;;;17.30;66.60;;;;;;5061148;28;20450;-79
2022/08/29 04:45:22;;;;;;;9.10;3.47;;;17.30;66.80;;;;;;5054794;28;21129;-79
2022/08/29 04:47:50;;;;;;;10.70;3.10;;;17.30;66.50;;;;;;5056429;28;20501;-79
2022/08/29 04:50:21;;;;;;;10.23;2.90;;;17.20;66.50;;;;;;5059684;28;20958;-79
2022/08/29 04:52:51;;;;;;;7.70;2.93;;;17.20;66.50;;;;;;5057927;28;20453;-79
2022/08/29 04:55:21;;;;;;;7.47;2.90;;;17.20;66.50;;;;;;5055373;28;20977;-79
2022/08/29 04:57:55;;;;;;;7.73;3.00;;;17.20;66.60;;;;;;5058671;28;20509;-80
2022/08/29 05:00:28;;;;;;;6.23;2.80;;;17.20;66.60;;;;;;5056409;28;20445;-79
2022/08/29 05:02:58;;;;;;;7.00;3.00;;;17.20;66.60;;;;;;5060363;28;20442;-79
2022/08/29 05:05:27;;;;;;;9.43;2.83;;;17.30;67.20;;;;;;5057836;28;21118;-79
2022/08/29 05:07:55;;;;;;;6.20;2.77;;;17.70;67.60;;;;;;5060599;28;20489;-79
2022/08/29 05:10:23;;;;;;;7.50;3.03;;;18.30;67.20;;;;;;5058537;28;20578;-79
2022/08/29 05:12:51;;;;;;;7.93;3.03;;;18.90;66.80;;;;;;5057124;28;20459;-77
2022/08/29 05:15:19;;;;;;;8.10;3.30;;;19.50;66.20;;;;;;5058015;28;20460;-79
2022/08/29 05:17:48;;;;;;;10.33;2.60;;;20.10;65.40;;;;;;5057388;28;20478;-78
2022/08/29 05:20:16;;;;;;;6.73;3.10;;;20.60;64.70;;;;;;5056158;28;20477;-78
2022/08/29 05:22:44;;;;;;;7.23;3.07;;;21.20;63.90;;;;;;5052473;28;20480;-77
2022/08/29 05:25:13;;;;;;;7.93;3.00;;;21.70;63.20;;;;;;5057440;28;21170;-79
2022/08/29 05:27:45;;;;;;;8.67;3.03;;;22.20;62.60;;;;;;5057565;28;20576;-79
2022/08/29 05:30:15;;;;;;;7.37;2.80;;;22.80;61.70;;;;;;5061884;28;20551;-79
2022/08/29 05:33:02;;;;;;;9.23;2.97;;;23.40;60.80;;;;;;5058823;28;20445;-79
2022/08/29 05:35:30;;;;;;;7.73;2.77;;;24.10;59.70;;;;;;5058549;28;20457;-79
2022/08/29 05:37:58;;;;;;;7.03;2.80;;;24.70;58.80;;;;;;5061347;28;20498;-79
2022/08/29 05:40:26;;;;;;;6.37;2.80;;;25.20;57.90;;;;;;5060626;28;20960;-79
2022/08/29 05:42:54;;;;;;;10.43;3.20;;;25.80;57.00;;;;;;5062973;28;20451;-79
2022/08/29 05:45:22;;;;;;;7.13;2.70;;;25.80;55.30;;;;;;5057626;28;20969;-78
2022/08/29 05:47:50;;;;;;;8.27;3.23;;;25.10;54.40;;;;;;5057642;28;20484;-79
2022/08/29 05:50:20;;;;;;;8.10;3.23;;;24.10;54.70;;;;;;5060771;28;20481;-79
2022/08/29 05:52:48;;;;;;;5.80;2.57;;;23.10;55.60;;;;;;5059686;28;20466;-79
2022/08/29 05:55:16;;;;;;;7.07;2.73;;;22.20;56.50;;;;;;5061861;28;20462;-79
2022/08/29 05:57:44;;;;;;;8.23;3.40;;;21.50;57.40;;;;;;5061290;28;20484;-79
2022/08/29 06:00:12;;;;;;;8.87;3.63;;;21.00;58.30;;;;;;5060917;28;20453;-79
2022/08/29 06:02:40;;;;;;;7.73;3.40;;;20.50;59.20;;;;;;5067969;28;20535;-78
2022/08/29 06:05:10;;;;;;;9.93;3.50;;;20.10;59.90;;;;;;5064440;28;20813;-78
2022/08/29 06:07:39;;;;;;;9.10;3.30;;;19.80;60.70;;;;;;5083917;28;20490;-79
2022/08/29 06:10:08;;;;;;;8.13;3.93;;;19.60;61.30;;;;;;5065787;28;20459;-78
2022/08/29 06:12:36;;;;;;;9.47;3.30;;;19.40;62.00;;;;;;5067902;28;20466;-77
2022/08/29 06:15:05;;;;;;;8.53;3.53;;;19.30;62.60;;;;;;5071310;28;20455;-78
2022/08/29 06:17:37;;;;;;;7.40;2.90;;;19.20;63.10;;;;;;5070040;28;20750;-79
2022/08/29 06:20:08;;;;;;;6.00;2.83;;;19.10;63.50;;;;;;5072558;28;20467;-78
2022/08/29 06:22:37;;;;;;;9.77;3.90;;;19.10;63.80;;;;;;5067157;28;20462;-78
2022/08/29 06:25:21;;;;;;;9.20;3.20;;;19.10;64.10;;;;;;5066354;28;20447;-77
2022/08/29 06:28:06;;;;;;;5.97;2.57;;;19.10;64.40;;;;;;5060603;28;21721;-77
2022/08/29 06:30:34;;;;;;;8.73;3.10;;;19.10;64.60;;;;;;5061172;28;20965;-77
2022/08/29 06:33:02;;;;;;;9.20;3.30;;;19.10;64.70;;;;;;5060241;28;20454;-80
2022/08/29 06:35:30;;;;;;;8.80;2.73;;;19.10;64.70;;;;;;5061014;28;21186;-79
2022/08/29 06:37:58;;;;;;;7.27;3.10;;;19.00;64.60;;;;;;5056083;28;20465;-78
2022/08/29 06:40:27;;;;;;;7.53;2.20;;;19.00;64.80;;;;;;5060766;28;20453;-78
2022/08/29 06:42:55;;;;;;;7.70;2.43;;;19.00;64.90;;;;;;5059110;28;20568;-77
2022/08/29 06:45:23;;;;;;;7.90;2.87;;;19.00;64.90;;;;;;5059230;28;20453;-78
2022/08/29 06:47:51;;;;;;;7.77;2.47;;;18.90;64.90;;;;;;5061235;28;20499;-78
2022/08/29 06:50:19;;;;;;;9.17;2.67;;;18.90;65.00;;;;;;5056569;28;20456;-79
2022/08/29 06:52:47;;;;;;;7.03;2.87;;;19.00;65.00;;;;;;5055742;28;20465;-77
2022/08/29 06:55:15;;;;;;;10.37;2.70;;;18.90;65.10;;;;;;5061376;28;20450;-79
2022/08/29 06:57:52;;;;;;;9.47;2.67;;;18.90;65.20;;;;;;5061890;28;20474;-78
2022/08/29 07:00:20;;;;;;;6.17;2.37;;;18.90;65.20;;;;;;5062514;28;21491;-78
2022/08/29 07:02:49;;;;;;;9.40;3.00;;;18.90;65.30;;;;;;5059443;28;20518;-77
2022/08/29 07:05:20;;;;;;;8.60;2.80;;;18.90;65.30;;;;;;5058884;28;20993;-78
2022/08/29 07:07:48;;;;;;;11.60;2.80;;;18.80;65.40;;;;;;5057988;28;20471;-78
2022/08/29 07:10:16;;;;;;;7.73;2.80;;;18.90;65.50;;;;;;5049791;28;20483;-79
2022/08/29 07:12:51;;;;;;;6.50;2.47;;;19.00;65.70;;;;;;5043804;28;20470;-78
2022/08/29 07:15:20;;;;;;;7.63;2.60;;;19.10;65.60;;;;;;5055788;28;20464;-79
2022/08/29 07:17:49;;;;;;;7.07;2.80;;;19.10;65.50;;;;;;5057544;28;20471;-77
2022/08/29 07:20:17;;;;;;;9.03;2.70;;;19.10;65.60;;;;;;5061663;28;20460;-78
2022/08/29 07:22:49;;;;;;;11.23;3.07;;;19.20;65.60;;;;;;5046187;28;20471;-77
2022/08/29 07:25:19;;;;;;;10.03;2.73;;;19.30;65.60;;;;;;5053790;28;20650;-78
2022/08/29 07:27:49;;;;;;;11.63;2.80;;;19.40;65.60;;;;;;5057926;28;20843;-77
2022/08/29 07:30:22;;;;;;;9.40;2.63;;;19.40;65.60;;;;;;5055463;28;20487;-77
2022/08/29 07:32:50;;;;;;;9.53;3.03;;;19.50;65.40;;;;;;5058961;28;20459;-78
2022/08/29 07:35:19;;;;;;;8.17;3.23;;;19.50;65.30;;;;;;5055405;28;20800;-79
2022/08/29 07:37:57;;;;;;;9.33;2.90;;;19.60;65.30;;;;;;5059683;28;20481;-79
2022/08/29 07:40:25;;;;;;;7.77;2.90;;;19.60;65.20;;;;;;5060175;28;20457;-79
2022/08/29 07:42:53;;;;;;;11.00;3.00;;;19.60;65.20;;;;;;5061755;28;21283;-79
2022/08/29 07:45:23;;;;;;;8.63;2.90;;;19.60;65.20;;;;;;5058635;28;21035;-79
2022/08/29 07:47:51;;;;;;;6.57;2.60;;;19.70;65.10;;;;;;5056889;28;20830;-79
2022/08/29 07:50:19;;;;;;;8.27;2.70;;;19.70;65.10;;;;;;5049487;28;20998;-78
2022/08/29 07:52:47;;;;;;;8.97;2.70;;;19.80;65.00;;;;;;5049793;28;20473;-79
2022/08/29 07:55:15;;;;;;;6.50;2.40;;;19.90;65.00;;;;;;5050291;28;20469;-79
2022/08/29 07:57:45;;;;;;;11.13;3.30;;;19.90;65.00;;;;;;5033082;28;20465;-79
2022/08/29 08:00:13;;;;;;;8.10;3.33;;;20.00;65.00;;;;;;5047810;28;20766;-77
2022/08/29 08:02:42;;;;;;;10.50;3.17;;;20.00;64.90;;;;;;5050793;28;20514;-78
2022/08/29 08:05:11;;;;;;;9.60;3.40;;;20.10;64.90;;;;;;5053592;28;20527;-79
2022/08/29 08:07:39;;;;;;;11.40;3.47;;;20.20;64.70;;;;;;5064305;28;20487;-78
2022/08/29 08:10:08;;;;;;;16.83;3.03;;;20.30;64.50;;;;;;5074689;28;21346;-78
2022/08/29 08:12:36;;;;;;;8.77;2.77;;;20.30;64.50;;;;;;5073306;28;20457;-79
2022/08/29 08:15:05;;;;;;;11.80;3.27;;;20.40;64.50;;;;;;5078669;28;20564;-79
2022/08/29 08:17:33;;;;;;;8.23;3.30;;;20.40;64.30;;;;;;5078492;28;20472;-79
2022/08/29 08:20:05;;;;;;;9.83;3.20;;;20.40;64.30;;;;;;5078826;28;21306;-77
2022/08/29 08:22:34;;;;;;;8.07;2.70;;;20.50;64.30;;;;;;5071464;28;20459;-78
2022/08/29 08:25:02;;;;;;;9.53;3.17;;;20.50;64.40;;;;;;5073711;28;20451;-77
2022/08/29 08:27:30;;;;;;;12.33;3.10;;;20.60;64.30;;;;;;5071541;28;20603;-77
2022/08/29 08:29:58;;;;;;;10.73;3.10;;;20.60;64.20;;;;;;5072865;28;20488;-78
2022/08/29 08:32:26;;;;;;;7.20;2.93;;;20.70;64.10;;;;;;5067454;28;20558;-77
2022/08/29 08:35:00;;;;;;;9.33;3.40;;;20.70;64.10;;;;;;5074709;28;20454;-79
2022/08/29 08:37:29;;;;;;;8.70;3.43;;;20.80;64.10;;;;;;5075878;28;21031;-79
2022/08/29 08:39:58;;;;;;;11.47;3.60;;;20.80;64.10;;;;;;5070565;28;20447;-79
2022/08/29 08:42:35;;;;;;;11.43;3.40;;;20.80;64.00;;;;;;5056804;28;20461;-78
2022/08/29 08:45:08;;;;;;;11.10;3.80;;;20.90;64.00;;;;;;5074648;28;20437;-78
2022/08/29 08:47:41;;;;;;;11.33;3.43;;;20.90;64.00;;;;;;5056011;28;20523;-78
2022/08/29 08:50:16;;;;;;;11.63;3.70;;;21.00;64.00;;;;;;5077746;28;21262;-78
2022/08/29 08:52:51;;;;;;;8.50;3.30;;;21.00;64.00;;;;;;5076309;28;20492;-77
2022/08/29 08:55:27;;;;;;;8.67;3.50;;;21.10;64.00;;;;;;5076521;28;20441;-78
2022/08/29 08:58:02;;;;;;;13.13;3.90;;;21.20;64.00;;;;;;5078050;28;20480;-79
2022/08/29 09:00:39;;;;;;;8.70;3.47;;;21.20;64.00;;;;;;5075930;28;20460;-80
2022/08/29 09:03:17;;;;;;;20.60;3.80;;;21.30;63.90;;;;;;5077076;28;20445;-80
2022/08/29 09:05:59;;;;;;;9.13;3.60;;;21.40;63.90;;;;;;5077362;28;20441;-79
2022/08/29 09:08:41;;;;;;;10.07;3.40;;;21.40;63.90;;;;;;5077230;28;20993;-78
2022/08/29 09:11:18;;;;;;;9.77;4.03;;;21.50;63.90;;;;;;5070998;28;20924;-77
2022/08/29 09:13:57;;;;;;;7.33;3.40;;;21.60;63.80;;;;;;5074222;28;21330;-79
2022/08/29 09:16:30;;;;;;;8.60;3.40;;;21.60;63.60;;;;;;5073276;28;20457;-79
2022/08/29 09:19:03;;;;;;;8.17;3.37;;;21.70;63.60;;;;;;5073306;28;20477;-79
2022/08/29 09:21:37;;;;;;;9.70;3.60;;;21.80;63.50;;;;;;5038681;28;1042528;-78
2022/08/29 09:24:17;;;;;;;8.93;3.70;;;21.80;63.60;;;;;;5072259;28;20511;-79
2022/08/29 09:26:45;;;;;;;9.40;4.03;;;21.90;63.50;;;;;;5077072;28;20437;-79
2022/08/29 09:29:13;;;;;;;8.40;3.60;;;22.00;63.50;;;;;;5074468;28;20477;-79
2022/08/29 09:31:41;;;;;;;13.53;3.93;;;22.10;63.50;;;;;;5075903;28;20445;-80
2022/08/29 09:34:14;;;;;;;10.53;4.33;;;22.10;63.40;;;;;;5060059;28;20457;-78
2022/08/29 09:36:44;;;;;;;10.23;3.00;;;22.10;63.40;;;;;;5076286;28;20454;-79
2022/08/29 09:39:22;;;;;;;11.93;4.13;;;22.20;63.30;;;;;;5075950;28;20467;-79
2022/08/29 09:41:53;;;;;;;8.23;3.90;;;22.20;63.30;;;;;;5076766;28;21230;-79
2022/08/29 09:44:25;;;;;;;10.97;4.67;;;22.30;63.40;;;;;;5075750;28;20455;-78
2022/08/29 09:47:10;;;;;;;10.83;4.67;;;22.40;63.60;;;;;;5074204;28;20458;-79
2022/08/29 09:49:39;;;;;;;8.80;4.33;;;22.50;63.60;;;;;;5073814;28;20455;-80
2022/08/29 09:52:11;;;;;;;8.70;4.10;;;22.50;63.60;;;;;;5074163;28;20482;-78
2022/08/29 09:54:41;;;;;;;9.67;4.87;;;22.60;63.50;;;;;;5074412;28;20458;-77
2022/08/29 09:57:19;;;;;;;12.67;3.97;;;22.60;63.40;;;;;;5074334;28;20817;-78
2022/08/29 09:59:51;;;;;;;13.20;3.73;;;22.70;63.40;;;;;;5077292;28;20466;-79
2022/08/29 10:02:24;;;;;;;11.60;3.90;;;22.80;63.30;;;;;;5087339;28;21241;-78
2022/08/29 10:04:54;;;;;;;10.23;3.33;;;22.80;63.20;;;;;;5076238;28;20505;-79
2022/08/29 10:07:24;;;;;;;11.30;3.50;;;22.90;63.00;;;;;;5078040;28;20937;-79
2022/08/29 10:09:57;;;;;;;13.27;4.20;;;23.00;62.70;;;;;;5074918;28;20475;-78
2022/08/29 10:12:33;;;;;;;12.47;4.97;;;23.00;62.30;;;;;;5075421;28;20471;-78
2022/08/29 10:15:04;;;;;;;9.73;3.30;;;23.00;62.30;;;;;;5073597;28;20460;-78
2022/08/29 10:20:41;;;;;;;8.67;3.13;;;23.10;62.10;;;;;;5074372;28;20461;-78
2022/08/29 10:23:21;;;;;;;7.67;3.30;;;23.20;61.80;;;;;;5072789;28;20526;-79
2022/08/29 10:25:51;;;;;;;9.07;3.47;;;23.20;61.80;;;;;;5076515;28;20546;-79
2022/08/29 10:28:29;;;;;;;11.07;4.27;;;23.20;61.60;;;;;;5076170;28;21357;-77
2022/08/29 10:31:04;;;;;;;10.47;3.80;;;23.30;61.40;;;;;;5076659;28;20482;-79
2022/08/29 10:33:54;;;;;;;7.67;2.87;;;23.30;61.20;;;;;;5078138;28;20962;-79
2022/08/29 10:36:29;;;;;;;12.53;3.93;;;23.40;61.00;;;;;;5082206;28;21101;-77
2022/08/29 10:39:02;;;;;;;9.50;3.23;;;23.40;60.80;;;;;;5078066;28;20986;-79
2022/08/29 10:41:39;;;;;;;10.47;3.97;;;23.40;60.60;;;;;;5078318;28;20448;-78
2022/08/29 10:44:19;;;;;;;9.30;2.97;;;23.50;60.50;;;;;;5079362;28;20449;-78
2022/08/29 10:47:06;;;;;;;8.10;3.07;;;23.60;60.40;;;;;;5081105;28;20526;-78
2022/08/29 10:49:52;;;;;;;13.13;4.00;;;23.60;60.10;;;;;;5081907;28;20987;-77
2022/08/29 10:52:27;;;;;;;10.90;3.43;;;23.60;59.80;;;;;;5081696;28;20456;-78
2022/08/29 10:55:04;;;;;;;7.20;3.63;;;23.70;59.50;;;;;;5079287;28;20457;-79
2022/08/29 10:57:46;;;;;;;11.70;3.40;;;23.70;59.40;;;;;;5078142;28;20466;-78
2022/08/29 11:00:18;;;;;;;13.20;2.73;;;23.80;59.20;;;;;;5073824;28;20452;-79
2022/08/29 11:02:52;;;;;;;9.90;3.40;;;23.80;59.00;;;;;;5077463;28;20464;-77
2022/08/29 11:05:25;;;;;;;10.30;4.30;;;23.90;58.90;;;;;;5078803;28;20459;-77
2022/08/29 11:08:00;;;;;;;11.43;3.43;;;23.90;58.90;;;;;;5081161;28;20501;-79
2022/08/29 11:10:39;;;;;;;6.90;3.60;;;23.90;58.90;;;;;;5075255;28;20475;-78
2022/08/29 11:13:12;;;;;;;8.77;3.57;;;24.00;58.80;;;;;;5080002;28;20455;-78
2022/08/29 11:15:44;;;;;;;7.03;2.87;;;24.00;58.70;;;;;;5078597;28;20470;-78
2022/08/29 11:18:22;;;;;;;8.80;3.23;;;24.00;58.70;;;;;;5057808;28;20474;-78
2022/08/29 11:20:55;;;;;;;9.23;3.50;;;24.10;58.60;;;;;;5074190;28;21094;-79
2022/08/29 11:23:31;;;;;;;10.43;3.40;;;24.20;58.50;;;;;;5078929;28;20470;-78
2022/08/29 11:26:07;;;;;;;8.23;3.03;;;24.20;58.30;;;;;;5066346;28;20458;-79
2022/08/29 11:28:41;;;;;;;10.20;3.70;;;24.30;58.00;;;;;;5076654;28;20471;-80
2022/08/29 11:31:21;;;;;;;9.57;3.20;;;24.30;57.80;;;;;;5079278;28;20481;-78
2022/08/29 11:33:58;;;;;;;8.33;3.57;;;24.30;57.70;;;;;;5075878;28;20489;-79
2022/08/29 11:36:47;;;;;;;8.40;2.70;;;24.30;57.60;;;;;;5078976;28;20455;-77
2022/08/29 11:39:43;;;;;;;8.40;3.30;;;24.40;57.30;;;;;;5075524;28;20471;-78
2022/08/29 11:42:13;;;;;;;7.27;2.90;;;24.40;57.30;;;;;;5077012;28;21009;-79
2022/08/29 11:44:48;;;;;;;8.30;3.10;;;24.50;57.20;;;;;;5077247;28;20455;-77
2022/08/29 11:47:33;;;;;;;8.73;3.30;;;24.50;57.00;;;;;;5079585;28;21042;-77
2022/08/29 11:50:21;;;;;;;8.40;3.27;;;24.50;56.90;;;;;;5080077;28;20456;-78
2022/08/29 11:52:54;;;;;;;7.83;3.90;;;24.50;56.80;;;;;;5078770;28;20475;-78
2022/08/29 11:55:30;;;;;;;10.57;3.60;;;24.50;56.80;;;;;;5080364;28;20536;-78
2022/08/29 11:58:04;;;;;;;10.93;2.80;;;24.50;56.60;;;;;;5081445;28;20475;-78
2022/08/29 12:00:45;;;;;;;6.60;3.20;;;24.50;56.50;;;;;;5078595;28;20444;-78
2022/08/29 12:03:53;;;;;;;7.30;3.27;;;24.50;56.50;;;;;;5077375;28;20451;-78
2022/08/29 12:06:33;;;;;;;7.73;3.07;;;24.50;56.40;;;;;;5076670;28;20461;-77
2022/08/29 12:09:18;;;;;;;8.23;2.70;;;24.50;56.30;;;;;;5081606;28;20467;-78
2022/08/29 12:12:35;;;;;;;8.33;3.10;;;24.50;56.30;;;;;;5076687;28;20490;-78
2022/08/29 12:15:44;;;;;;;8.30;3.27;;;24.60;56.20;;;;;;5014745;28;20927;-78
2022/08/29 12:18:44;;;;;;;9.00;3.00;;;24.60;56.10;;;;;;5080794;28;20478;-78
2022/08/29 12:21:32;;;;;;;9.07;3.70;;;24.60;55.90;;;;;;5077476;28;20472;-78
2022/08/29 12:24:01;;;;;;;9.57;3.37;;;24.70;55.50;;;;;;5077044;28;20479;-77
2022/08/29 12:26:41;;;;;;;5.80;2.93;;;24.70;55.60;;;;;;5082585;28;20450;-77
2022/08/29 12:29:17;;;;;;;8.93;3.63;;;24.70;55.20;;;;;;5076853;28;20886;-78
2022/08/29 12:32:15;;;;;;;8.53;2.90;;;24.80;55.00;;;;;;5075269;28;20490;-77
2022/08/29 12:35:19;;;;;;;7.30;3.50;;;24.80;55.10;;;;;;5075647;28;20466;-79
2022/08/29 12:38:00;;;;;;;7.60;3.10;;;24.70;55.00;;;;;;5076572;28;20475;-78
2022/08/29 12:41:00;;;;;;;8.33;3.50;;;24.70;55.10;;;;;;5075039;28;20463;-79
2022/08/29 12:43:34;;;;;;;9.97;3.20;;;24.80;55.10;;;;;;5075331;28;20445;-78
2022/08/29 12:46:09;;;;;;;10.07;2.80;;;24.80;55.10;;;;;;5082721;28;20455;-77
2022/08/29 12:48:42;;;;;;;10.60;3.10;;;24.80;54.90;;;;;;5080653;28;20477;-79
2022/08/29 12:54:59;;;;;;;5.40;2.60;;;24.80;55.00;;;;;;5194039;27;20512;-76
2022/08/29 12:57:32;;;;;;;6.77;2.60;;;25.00;54.90;;;;;;5116405;27;21003;-77
2022/08/29 13:00:05;;;;;;;6.40;2.80;;;25.10;54.90;;;;;;5114799;28;20961;-77
2022/08/29 13:02:38;;;;;;;9.07;3.07;;;25.10;54.60;;;;;;5119811;28;20452;-74
2022/08/29 13:05:21;;;;;;;7.47;2.77;;;25.10;54.30;;;;;;5115069;28;20451;-76
2022/08/29 13:07:57;;;;;;;8.50;2.87;;;25.10;54.10;;;;;;5112404;28;20516;-76
2022/08/29 13:10:27;;;;;;;9.87;3.17;;;25.20;54.00;;;;;;5112812;28;20460;-75
2022/08/29 13:13:09;;;;;;;8.47;3.50;;;25.20;53.90;;;;;;5120277;27;21026;-77
2022/08/29 13:15:38;;;;;;;8.93;3.00;;;25.20;53.80;;;;;;5113634;28;20454;-75
2022/08/29 13:18:06;;;;;;;6.33;3.00;;;25.20;53.80;;;;;;5116602;28;20889;-74